»·PEaware :: N412PA KBFL-KMHV

N412PA :: KBFL-KMHV

FLIGHT INFORMATION

Flight Status: Arrived
Operator: Privately registered:
United States
More flights under this callsign
Pilot: Joe C. (32404)
Aircraft: CESSNA 172 SKYHAWK
(C172)
More flights by this aircraft type
Origin: KBFL Meadows
United States
Destination: KMHV Mojave
United States
More flights between these airports :: More routes between these airports
Route:
File this flight plan on PilotEdge
Remarks: KBFL direct KMHV CAT-6
Altitude:
(Current/Filed)
7,500ft
Speed:
(Current/Filed)
109kts
Departed: 20-Jan-21 03:47 PM
Arrived: 20-Jan-21 04:21 PM
Distance/Time
Traveled:
50nm/0:34
Distance/Time
To Go:
Arrived

Flight Plot

Page will automatically refresh every two minutes.


Map Options




Map Legend


Flown Route
Filed Route
Departure Airport
Arrival Airport
Navaid (VOR, NDB)
Fix

Horizontal Profiles

Position Reports

Time Latitude Longitude Heading Altitude Ground
Speed
20-Jan-21 15:32 35.429110 -119.046451 135 481ft 0kts
20-Jan-21 15:33 35.429110 -119.046451 135 481ft 0kts
20-Jan-21 15:34 35.429110 -119.046451 135 481ft 0kts
20-Jan-21 15:35 35.429110 -119.046451 135 481ft 0kts
20-Jan-21 15:36 35.429110 -119.046451 135 481ft 0kts
20-Jan-21 15:37 35.429110 -119.046451 135 481ft 0kts
20-Jan-21 15:38 35.429110 -119.046451 135 481ft 0kts
20-Jan-21 15:39 35.429110 -119.046451 135 481ft 0kts
20-Jan-21 15:40 35.429110 -119.046451 135 481ft 0kts
20-Jan-21 15:41 35.429110 -119.046451 135 481ft 0kts
20-Jan-21 15:42 35.428509 -119.047157 207 480ft 10kts
20-Jan-21 15:43 35.425858 -119.044621 221 471ft 0kts
20-Jan-21 15:44 35.425851 -119.044630 224 471ft 0kts
20-Jan-21 15:45 35.425577 -119.045897 280 475ft 11kts
20-Jan-21 15:46 35.435063 -119.058102 319 755ft 79kts
20-Jan-21 15:47 35.450897 -119.066560 44 1571ft 76kts
20-Jan-21 15:48 35.448605 -119.044384 128 2363ft 77kts
20-Jan-21 15:49 35.431560 -119.025835 135 3091ft 85kts
20-Jan-21 15:50 35.415841 -119.004913 125 3874ft 81kts
20-Jan-21 15:51 35.402217 -118.983007 119 4553ft 84kts
20-Jan-21 15:52 35.387633 -118.959841 118 5217ft 84kts
20-Jan-21 15:53 35.377996 -118.934106 109 5877ft 82kts
20-Jan-21 15:54 35.367537 -118.907972 116 6475ft 86kts
20-Jan-21 15:55 35.356477 -118.882772 114 7105ft 83kts
20-Jan-21 15:56 35.343472 -118.859014 117 7568ft 91kts
20-Jan-21 15:57 35.334181 -118.827270 110 7571ft 106kts
20-Jan-21 15:58 35.319627 -118.795109 118 7538ft 106kts
20-Jan-21 15:59 35.305557 -118.763506 112 7592ft 105kts
20-Jan-21 16:00 35.293371 -118.730814 110 7562ft 105kts
20-Jan-21 16:01 35.281717 -118.697619 110 7592ft 106kts
20-Jan-21 16:02 35.267475 -118.665263 120 7581ft 109kts
20-Jan-21 16:03 35.249478 -118.634866 123 7612ft 111kts
20-Jan-21 16:04 35.231523 -118.603315 121 7636ft 113kts
20-Jan-21 16:05 35.213297 -118.571747 118 7604ft 114kts
20-Jan-21 16:06 35.199363 -118.537617 114 7596ft 110kts
20-Jan-21 16:07 35.184963 -118.504449 110 7628ft 109kts
20-Jan-21 16:08 35.171779 -118.470222 94 7508ft 113kts
20-Jan-21 16:09 35.161079 -118.436508 119 7482ft 108kts
20-Jan-21 16:10 35.142441 -118.407689 124 7521ft 107kts
20-Jan-21 16:12 35.121429 -118.381172 130 7469ft 112kts
20-Jan-21 16:13 35.095476 -118.359957 148 7355ft 117kts
20-Jan-21 16:14 35.066664 -118.343434 120 7139ft 106kts
20-Jan-21 16:15 35.061240 -118.308254 96 6267ft 106kts
20-Jan-21 16:16 35.059281 -118.272615 89 5285ft 103kts
20-Jan-21 16:17 35.058929 -118.238923 85 4501ft 94kts
20-Jan-21 16:18 35.058963 -118.211217 86 3848ft 74kts
20-Jan-21 16:19 35.059225 -118.188695 84 3205ft 60kts
20-Jan-21 16:20 35.059219 -118.167886 87 2837ft 62kts
20-Jan-21 16:21 35.058912 -118.157783 161 2763ft 11kts
20-Jan-21 16:22 35.058260 -118.157748 182 2765ft 0kts
20-Jan-21 16:23 35.057021 -118.157027 178 2765ft 0kts

Navigation Log

Ident Type
Flight plan parsing failed, navigation log unavailable